Time;durP1;ratioP1;P1;durP2;ratioP2;P2;SDS_P1;SDS_P2;PMS_P1;PMS_P2;Temp;Humidity;BMP_temperature;BMP_pressure;BME280_temperature;BME280_humidity;BME280_pressure;Samples;Min_cycle;Max_cycle;Signal;HPM_P1;HPM_P2
2022/02/09 00:01:30;;;;;;;4.40;4.10;;;;;;;3.93;100.00;98342.63;5015106;28;20260;-51
2022/02/09 00:04:05;;;;;;;4.43;3.87;;;;;;;3.90;100.00;98344.53;4994464;28;20208;-50
2022/02/09 00:06:45;;;;;;;7.97;3.93;;;;;;;3.86;100.00;98343.09;5013223;28;20427;-53
2022/02/09 00:09:13;;;;;;;5.57;3.90;;;;;;;4.02;100.00;98348.03;5013961;28;20236;-50
2022/02/09 00:11:46;;;;;;;3.90;3.60;;;;;;;3.92;100.00;98352.25;4980414;28;20578;-55
2022/02/09 00:14:23;;;;;;;3.23;2.90;;;;;;;3.88;100.00;98350.81;4994086;28;20308;-52
2022/02/09 00:19:47;;;;;;;4.33;3.90;;;;;;;3.83;100.00;98352.94;4990242;28;20605;-52
2022/02/09 00:22:29;;;;;;;3.60;3.40;;;;;;;3.83;100.00;98353.81;5013583;28;20311;-54
2022/02/09 00:33:53;;;;;;;3.77;3.47;;;;;;;4.03;100.00;98360.19;4928588;28;20214;-54
2022/02/09 00:36:51;;;;;;;3.93;3.63;;;;;;;4.07;100.00;98359.97;4931485;28;20798;-53
2022/02/09 00:42:21;;;;;;;4.80;3.87;;;;;;;3.85;100.00;98351.91;4896399;28;20227;-49
2022/02/09 01:40:30;;;;;;;2.73;2.63;;;;;;;3.88;100.00;98354.28;4945411;28;20233;-47
2022/02/09 01:43:59;;;;;;;2.43;2.30;;;;;;;3.89;100.00;98344.63;4913801;28;20731;-50
2022/02/09 01:57:18;;;;;;;4.27;2.87;;;;;;;3.62;100.00;98327.38;5009572;28;20262;-51
2022/02/09 01:59:48;;;;;;;4.00;2.97;;;;;;;3.58;100.00;98325.88;4975316;28;20222;-51
2022/02/09 02:02:18;;;;;;;2.60;2.50;;;;;;;3.50;100.00;98325.63;4998502;28;20330;-49
2022/02/09 02:04:47;;;;;;;2.40;2.30;;;;;;;3.69;100.00;98318.09;4986232;28;20359;-51
2022/02/09 02:07:26;;;;;;;2.20;2.10;;;;;;;3.76;100.00;98319.31;5008715;28;20680;-51
2022/02/09 02:10:01;;;;;;;2.90;2.70;;;;;;;3.68;100.00;98307.72;4990621;28;20481;-50
2022/02/09 02:12:33;;;;;;;4.47;2.87;;;;;;;3.67;100.00;98306.03;5014307;28;20260;-52
2022/02/09 02:15:23;;;;;;;2.90;2.50;;;;;;;3.87;100.00;98297.56;4983450;28;20263;-49
2022/02/09 02:17:51;;;;;;;2.83;2.30;;;;;;;3.76;100.00;98300.13;5005990;28;21133;-54
2022/02/09 02:20:32;;;;;;;2.80;2.60;;;;;;;3.80;100.00;98308.59;5001456;28;20246;-51
2022/02/09 02:23:28;;;;;;;1.93;1.83;;;;;;;3.84;100.00;98305.66;5006547;28;20886;-51
2022/02/09 02:26:09;;;;;;;2.00;1.90;;;;;;;4.03;100.00;98305.13;5015049;28;20299;-51
2022/02/09 02:28:48;;;;;;;2.17;2.07;;;;;;;3.95;100.00;98304.00;5012289;28;20326;-50
2022/02/09 02:31:55;;;;;;;1.90;1.80;;;;;;;3.81;100.00;98310.28;4978392;28;20236;-51
2022/02/09 02:38:21;;;;;;;1.73;1.73;;;;;;;3.94;100.00;98297.91;4991753;28;20852;-49
2022/02/09 02:46:42;;;;;;;1.80;1.70;;;;;;;3.89;100.00;98295.66;4967643;28;20220;-52
2022/02/09 02:57:42;;;;;;;1.97;1.87;;;;;;;3.89;100.00;98295.66;5010834;28;20729;-50
2022/02/09 03:08:44;;;;;;;2.83;1.93;;;;;;;3.87;100.00;98294.09;5003836;28;20212;-48
2022/02/09 03:11:31;;;;;;;1.73;1.73;;;;;;;3.94;100.00;98287.44;4986077;28;20727;-52
2022/02/09 03:14:07;;;;;;;1.47;1.37;;;;;;;3.81;100.00;98284.06;5011215;28;20219;-47
2022/02/09 03:16:39;;;;;;;1.70;1.60;;;;;;;3.80;100.00;98280.63;4974566;28;20622;-51
2022/02/09 03:22:10;;;;;;;2.03;1.87;;;;;;;3.82;100.00;98277.88;5014030;28;20228;-47
2022/02/09 03:24:56;;;;;;;1.80;1.70;;;;;;;3.82;100.00;98280.50;5015560;28;20208;-50
2022/02/09 03:27:41;;;;;;;1.87;1.77;;;;;;;3.93;100.00;98270.03;5002916;28;20696;-51
2022/02/09 03:44:18;;;;;;;2.27;1.90;;;;;;;3.73;100.00;98290.72;5012815;28;20227;-47
2022/02/09 03:49:52;;;;;;;1.90;1.80;;;;;;;3.64;100.00;98285.31;5012150;28;20220;-51
2022/02/09 03:52:45;;;;;;;1.50;1.50;;;;;;;3.71;100.00;98284.75;4966799;28;22353;-50
2022/02/09 03:55:17;;;;;;;3.53;3.23;;;;;;;3.65;100.00;98285.22;5009928;28;20196;-50
2022/02/09 03:57:46;;;;;;;1.80;1.70;;;;;;;3.69;100.00;98270.06;4991642;28;20226;-50
2022/02/09 04:00:15;;;;;;;2.30;2.03;;;;;;;3.82;100.00;98267.38;5008901;28;20200;-52
2022/02/09 04:02:46;;;;;;;1.97;1.87;;;;;;;3.90;100.00;98272.88;5014667;28;20234;-52
2022/02/09 04:05:15;;;;;;;2.17;1.97;;;;;;;3.80;100.00;98266.66;4954818;28;20535;-49
2022/02/09 04:07:44;;;;;;;1.77;1.77;;;;;;;3.82;100.00;98265.59;5014640;28;20207;-49
2022/02/09 04:10:17;;;;;;;1.90;1.80;;;;;;;3.85;100.00;98262.75;4982760;28;20208;-50
2022/02/09 04:12:55;;;;;;;2.07;1.97;;;;;;;3.72;100.00;98260.22;4984612;28;20326;-51
2022/02/09 04:15:29;;;;;;;1.80;1.70;;;;;;;3.71;100.00;98258.53;5010306;28;20415;-51
2022/02/09 04:18:11;;;;;;;2.07;1.97;;;;;;;3.72;100.00;98241.84;5012612;28;20207;-46
2022/02/09 04:37:16;;;;;;;1.90;1.80;;;;;;;3.82;100.00;98223.66;4994085;28;20298;-51
2022/02/09 04:39:49;;;;;;;2.50;2.23;;;;;;;3.77;100.00;98223.16;4985052;28;20211;-47
2022/02/09 04:42:36;;;;;;;3.37;2.37;;;;;;;3.86;100.00;98240.84;5014060;28;20528;-46
2022/02/09 04:48:03;;;;;;;2.20;2.10;;;;;;;3.76;100.00;98235.44;4967853;28;20441;-46
2022/02/09 04:50:36;;;;;;;2.43;2.33;;;;;;;3.80;100.00;98245.69;4930781;28;20584;-49
2022/02/09 04:55:53;;;;;;;2.43;2.23;;;;;;;3.76;100.00;98243.28;4950013;28;20221;-49
2022/02/09 04:58:36;;;;;;;2.20;2.00;;;;;;;3.81;100.00;98223.75;4946686;28;20861;-47
2022/02/09 05:01:12;;;;;;;2.43;2.33;;;;;;;3.84;100.00;98218.28;4968438;28;20701;-48
2022/02/09 05:04:02;;;;;;;1.83;1.73;;;;;;;3.84;100.00;98219.13;4969998;28;20305;-49
2022/02/09 05:18:04;;;;;;;2.17;2.07;;;;;;;3.85;100.00;98217.34;4971203;28;20216;-49
2022/02/09 05:26:20;;;;;;;2.60;2.50;;;;;;;3.86;100.00;98219.84;4982297;28;20201;-50
2022/02/09 05:28:48;;;;;;;2.97;2.10;;;;;;;3.84;100.00;98206.03;5011052;28;20278;-53
2022/02/09 05:31:16;;;;;;;2.00;1.90;;;;;;;4.00;100.00;98208.31;4985158;28;20220;-52
2022/02/09 05:33:44;;;;;;;2.30;2.20;;;;;;;3.90;100.00;98221.28;5012196;28;20196;-53
2022/02/09 05:36:12;;;;;;;4.00;1.87;;;;;;;3.87;100.00;98216.28;5009988;28;20200;-51
2022/02/09 05:38:42;;;;;;;2.47;2.27;;;;;;;3.82;100.00;98221.03;4980609;28;20226;-52
2022/02/09 05:41:10;;;;;;;1.77;1.73;;;;;;;3.84;100.00;98218.28;4981161;28;20982;-50
2022/02/09 05:43:38;;;;;;;2.77;2.13;;;;;;;3.82;100.00;98217.56;5013191;28;20419;-50
2022/02/09 05:46:53;;;;;;;2.87;1.87;;;;;;;3.88;100.00;98214.47;4986302;28;20204;-50
2022/02/09 05:49:33;;;;;;;2.00;1.90;;;;;;;3.80;100.00;98206.38;5008492;28;20200;-48
2022/02/09 05:52:05;;;;;;;2.07;1.97;;;;;;;3.83;100.00;98216.63;4985109;28;20230;-54
2022/02/09 05:55:01;;;;;;;3.03;2.87;;;;;;;3.79;100.00;98215.19;5012326;28;20208;-51
2022/02/09 05:57:44;;;;;;;2.23;2.03;;;;;;;3.76;100.00;98218.84;4985478;28;20219;-49
2022/02/09 06:00:14;;;;;;;2.87;2.67;;;;;;;3.88;100.00;98222.34;5009589;28;20196;-53
2022/02/09 06:02:42;;;;;;;4.93;3.10;;;;;;;3.90;100.00;98216.03;4990124;28;20224;-50
2022/02/09 06:05:10;;;;;;;2.97;2.77;;;;;;;3.83;100.00;98227.94;5008884;28;21598;-47
2022/02/09 06:07:38;;;;;;;4.90;3.50;;;;;;;3.78;100.00;98224.81;5012785;28;20204;-53
2022/02/09 06:10:16;;;;;;;2.77;2.63;;;;;;;3.73;100.00;98227.81;4966952;28;20597;-49
2022/02/09 06:12:49;;;;;;;2.50;2.40;;;;;;;3.73;100.00;98229.56;4987010;28;20224;-51
2022/02/09 06:15:57;;;;;;;3.07;2.83;;;;;;;3.84;100.00;98234.88;5008543;28;20273;-47
2022/02/09 06:20:58;;;;;;;2.83;2.60;;;;;;;3.89;100.00;98226.63;5007976;28;20429;-52
2022/02/09 06:23:26;;;;;;;2.30;2.20;;;;;;;4.01;100.00;98212.63;4971725;28;20226;-51
2022/02/09 06:25:56;;;;;;;2.67;2.50;;;;;;;3.82;100.00;98223.66;5011573;28;20409;-52
2022/02/09 06:28:24;;;;;;;2.63;2.53;;;;;;;3.97;100.00;98224.25;4981974;28;20212;-51
2022/02/09 06:30:53;;;;;;;2.80;2.60;;;;;;;3.90;100.00;98226.53;5011266;28;20228;-50
2022/02/09 06:33:21;;;;;;;2.57;2.47;;;;;;;3.82;100.00;98233.28;4985285;28;20208;-46
2022/02/09 06:35:50;;;;;;;2.40;2.23;;;;;;;3.86;100.00;98235.59;5005302;28;20208;-48
2022/02/09 06:38:18;;;;;;;2.30;2.20;;;;;;;3.78;100.00;98224.00;4995360;28;20736;-48
2022/02/09 06:40:47;;;;;;;2.60;2.50;;;;;;;3.88;100.00;98240.69;4999413;28;20532;-51
2022/02/09 06:43:16;;;;;;;2.47;1.97;;;;;;;4.00;100.00;98245.03;4994995;28;20676;-48
2022/02/09 06:45:44;;;;;;;2.43;2.20;;;;;;;3.99;100.00;98243.38;5009381;28;20200;-48
2022/02/09 06:48:12;;;;;;;2.40;2.30;;;;;;;3.98;100.00;98241.69;4994778;28;20236;-48
2022/02/09 06:50:44;;;;;;;2.47;2.37;;;;;;;4.03;100.00;98222.97;5012013;28;20941;-49
2022/02/09 06:53:27;;;;;;;2.20;2.00;;;;;;;3.93;100.00;98216.75;5009125;28;20587;-52
2022/02/09 06:55:57;;;;;;;1.90;1.80;;;;;;;4.29;100.00;98228.03;5014213;28;20299;-50
2022/02/09 07:01:24;;;;;;;2.47;2.37;;;;;;;4.40;100.00;98227.19;5074242;27;20669;-47
2022/02/09 07:03:52;;;;;;;2.30;1.60;;;;;;;4.43;100.00;98229.56;5028395;28;20207;-48
2022/02/09 07:06:20;;;;;;;1.50;1.47;;;;;;;4.43;100.00;98224.31;5045071;28;20214;-46
2022/02/09 07:08:48;;;;;;;1.60;1.60;;;;;;;4.45;100.00;98218.00;5046976;28;20203;-49
2022/02/09 07:11:16;;;;;;;1.93;1.83;;;;;;;4.44;100.00;98202.38;5007647;28;20641;-45
2022/02/09 07:13:44;;;;;;;1.70;1.60;;;;;;;4.52;100.00;98218.34;5050829;28;20230;-49
2022/02/09 07:16:12;;;;;;;1.10;1.10;;;;;;;4.61;100.00;98222.88;5029141;28;20217;-50
2022/02/09 07:18:44;;;;;;;1.47;1.47;;;;;;;4.60;100.00;98215.13;5028268;28;20207;-48
2022/02/09 07:21:17;;;;;;;1.70;1.60;;;;;;;4.54;100.00;98210.34;5032030;28;20280;-49
2022/02/09 07:23:48;;;;;;;2.03;1.93;;;;;;;4.60;100.00;98212.50;5043983;28;20233;-48
2022/02/09 07:26:20;;;;;;;1.33;1.33;;;;;;;4.37;100.00;98217.75;5007980;28;20225;-48
2022/02/09 07:28:49;;;;;;;2.17;1.97;;;;;;;4.49;100.00;98232.53;5042308;28;20300;-51
2022/02/09 07:31:17;;;;;;;1.53;1.53;;;;;;;4.60;100.00;98230.88;5022504;28;20237;-47
2022/02/09 07:33:47;;;;;;;1.47;1.47;;;;;;;4.75;100.00;98226.22;5029726;28;20264;-48
2022/02/09 07:36:17;;;;;;;1.40;1.30;;;;;;;4.70;100.00;98231.81;5042888;28;20206;-49
2022/02/09 07:38:45;;;;;;;1.67;1.67;;;;;;;4.85;100.00;98235.03;5047291;28;20356;-48
2022/02/09 07:41:14;;;;;;;2.57;1.60;;;;;;;4.84;100.00;98228.13;5030059;28;20725;-50
2022/02/09 07:43:48;;;;;;;1.60;1.60;;;;;;;4.58;100.00;98207.38;5021818;28;20212;-48
2022/02/09 07:46:32;;;;;;;1.60;1.50;;;;;;;4.61;100.00;98222.88;5018900;28;20221;-49
2022/02/09 07:49:08;;;;;;;1.70;1.60;;;;;;;4.69;100.00;98224.91;5026587;28;20605;-50
2022/02/09 07:51:54;;;;;;;1.70;1.70;;;;;;;4.63;100.00;98228.03;5050471;28;20450;-52
2022/02/09 07:54:25;;;;;;;2.20;2.10;;;;;;;4.52;100.00;98222.75;5046965;28;20256;-49
2022/02/09 07:56:53;;;;;;;2.60;1.83;;;;;;;4.68;100.00;98222.38;5004519;28;20223;-53
2022/02/09 07:59:21;;;;;;;2.63;2.20;;;;;;;4.85;100.00;98226.31;5041304;28;20618;-46
2022/02/09 08:01:49;;;;;;;1.60;1.50;;;;;;;4.81;100.00;98225.75;5033049;28;21877;-52
2022/02/09 08:04:19;;;;;;;1.30;1.30;;;;;;;4.97;100.00;98222.72;5012355;28;20227;-48
2022/02/09 08:06:48;;;;;;;1.57;1.53;;;;;;;5.03;100.00;98214.34;5044672;28;20551;-51
2022/02/09 08:09:23;;;;;;;1.63;1.63;;;;;;;4.82;100.00;98219.53;5046444;28;20238;-51
2022/02/09 08:11:59;;;;;;;1.80;1.70;;;;;;;4.75;100.00;98223.59;5039361;28;20601;-53
2022/02/09 08:34:06;;;;;;;1.50;1.40;;;;;;;5.27;100.00;98212.47;5034542;28;20583;-47
2022/02/09 08:36:36;;;;;;;1.30;1.30;;;;;;;5.43;100.00;98212.06;5013616;28;20705;-53
2022/02/09 08:39:05;;;;;;;1.50;1.40;;;;;;;5.24;100.00;98207.47;5027905;28;20207;-50
2022/02/09 08:41:33;;;;;;;1.53;1.20;;;;;;;5.17;100.00;98212.38;5014757;28;20230;-47
2022/02/09 08:44:01;;;;;;;1.33;1.33;;;;;;;5.37;100.00;98205.50;4998435;28;20251;-50
2022/02/09 08:46:29;;;;;;;1.57;1.50;;;;;;;5.23;100.00;98209.25;5030453;28;20214;-47
2022/02/09 08:48:57;;;;;;;3.03;1.73;;;;;;;5.34;100.00;98209.25;5009231;28;20672;-50
2022/02/09 08:51:27;;;;;;;1.17;1.17;;;;;;;5.34;100.00;98211.88;4990014;28;20220;-51
2022/02/09 08:53:56;;;;;;;1.30;1.23;;;;;;;5.49;100.00;98207.16;5031834;28;20205;-49
2022/02/09 08:56:28;;;;;;;1.40;1.40;;;;;;;5.45;100.00;98200.44;5000507;28;20331;-53
2022/02/09 08:58:57;;;;;;;1.70;1.70;;;;;;;5.43;100.00;98199.75;5031645;28;20633;-49
2022/02/09 09:01:33;;;;;;;1.33;1.30;;;;;;;5.55;100.00;98207.59;4989463;28;20231;-46
2022/02/09 09:04:08;;;;;;;1.47;1.47;;;;;;;5.49;100.00;98206.31;5005679;28;20211;-52
2022/02/09 09:06:40;;;;;;;1.47;1.37;;;;;;;5.64;100.00;98201.56;5010557;28;20402;-52
2022/02/09 09:09:22;;;;;;;2.00;1.50;;;;;;;5.60;100.00;98200.16;5029979;28;20207;-47
2022/02/09 09:17:48;;;;;;;1.50;1.40;;;;;;;5.79;100.00;98207.34;4989523;28;20745;-53
2022/02/09 10:02:08;;;;;;;1.37;1.27;;;;;;;6.21;100.00;98201.25;5017929;28;20240;-48
2022/02/09 10:05:06;;;;;;;2.13;1.67;;;;;;;6.31;100.00;98202.13;4983704;28;20219;-49
2022/02/09 10:33:05;;;;;;;10.77;4.30;;;;;;;6.34;100.00;98193.13;5036910;28;20226;-48
2022/02/09 10:35:37;;;;;;;2.63;2.43;;;;;;;6.53;100.00;98200.28;4984054;28;20383;-51
2022/02/09 10:38:24;;;;;;;1.97;1.87;;;;;;;6.72;100.00;98188.16;4994528;28;20219;-49
2022/02/09 10:40:54;;;;;;;2.10;2.00;;;;;;;6.64;100.00;98181.75;5011735;28;20606;-53
2022/02/09 10:43:27;;;;;;;2.30;2.20;;;;;;;6.56;100.00;98168.41;5031912;28;20200;-47
2022/02/09 10:46:10;;;;;;;3.63;3.30;;;;;;;6.73;100.00;98174.00;5025853;28;20209;-48
2022/02/09 10:48:49;;;;;;;5.23;3.47;;;;;;;6.52;100.00;98164.38;4977495;28;21226;-51
2022/02/09 10:51:26;;;;;;;3.60;3.30;;;;;;;6.55;100.00;98165.91;5016351;28;20224;-46
2022/02/09 10:54:12;;;;;;;4.37;3.50;;;;;;;6.61;100.00;98166.19;5007521;28;20226;-54
2022/02/09 10:56:42;;;;;;;6.13;3.33;;;;;;;6.74;100.00;98165.13;5006031;28;20204;-49
2022/02/09 10:59:12;;;;;;;6.83;4.00;;;;;;;6.75;100.00;98148.38;5028396;28;20562;-49
2022/02/09 11:01:41;;;;;;;4.23;3.73;;;;;;;6.53;100.00;98158.16;5000391;28;20338;-51
2022/02/09 11:04:19;;;;;;;4.13;3.80;;;;;;;6.39;100.00;98138.28;5008486;28;20216;-53
2022/02/09 11:06:49;;;;;;;4.80;3.60;;;;;;;6.45;100.00;98150.94;5008138;28;20212;-51
2022/02/09 11:09:28;;;;;;;5.07;3.63;;;;;;;6.65;100.00;98149.19;4983034;28;20208;-46
2022/02/09 11:11:56;;;;;;;8.90;5.80;;;;;;;6.83;100.00;98160.88;5000118;28;20323;-50
2022/02/09 11:14:26;;;;;;;4.90;3.00;;;;;;;6.82;100.00;98157.38;5009410;28;20287;-47
2022/02/09 11:16:56;;;;;;;7.07;3.60;;;;;;;6.83;100.00;98152.97;5007790;28;20231;-48
2022/02/09 11:19:32;;;;;;;6.13;3.73;;;;;;;7.20;100.00;98158.41;4994149;28;20204;-48
2022/02/09 11:22:06;;;;;;;3.40;3.10;;;;;;;7.03;100.00;98153.81;4973871;28;20502;-48
2022/02/09 11:24:41;;;;;;;3.30;3.10;;;;;;;7.20;100.00;98145.22;4973772;28;20389;-47
2022/02/09 11:27:14;;;;;;;3.23;2.93;;;;;;;7.25;100.00;98150.09;4994839;28;20227;-48
2022/02/09 11:29:50;;;;;;;3.37;3.10;;;;;;;7.37;100.00;98137.56;5003270;28;20209;-50
2022/02/09 11:35:43;;;;;;;7.43;3.83;;;;;;;7.17;100.00;98132.31;5010803;28;20214;-50
2022/02/09 11:38:20;;;;;;;8.93;3.67;;;;;;;7.46;100.00;98138.53;4964266;28;20223;-51
2022/02/09 11:40:54;;;;;;;3.53;3.30;;;;;;;7.41;100.00;98132.84;4985122;28;20583;-47
2022/02/09 11:44:08;;;;;;;3.67;3.37;;;;;;;7.40;100.00;98139.94;4988737;28;20232;-48
2022/02/09 12:10:25;;;;;;;4.80;3.23;;;;;;;7.35;100.00;98135.09;5030010;28;20284;-52
2022/02/09 12:13:03;;;;;;;3.70;3.50;;;;;;;7.72;100.00;98124.75;5011911;28;20231;-52
2022/02/09 12:15:53;;;;;;;4.47;4.17;;;;;;;7.72;100.00;98127.41;5004242;28;20337;-52
2022/02/09 12:18:29;;;;;;;5.03;4.20;;;;;;;7.59;100.00;98125.91;5037131;28;20202;-48
2022/02/09 12:21:05;;;;;;;6.67;4.70;;;;;;;7.51;100.00;98129.25;5025940;28;20223;-51
2022/02/09 12:23:35;;;;;;;4.23;3.80;;;;;;;7.64;100.00;98125.47;4993194;28;20479;-47
2022/02/09 12:26:11;;;;;;;4.97;3.77;;;;;;;7.67;100.00;98126.03;5012913;28;20742;-48
2022/02/09 12:28:43;;;;;;;4.17;3.40;;;;;;;7.71;100.00;98108.09;5005033;28;21749;-52
2022/02/09 12:31:13;;;;;;;3.97;3.67;;;;;;;7.79;100.00;98118.78;5011790;28;20726;-49
2022/02/09 12:33:43;;;;;;;3.90;3.70;;;;;;;7.67;100.00;98110.19;5027004;28;20409;-49
2022/02/09 12:36:14;;;;;;;4.20;3.87;;;;;;;7.83;100.00;98103.47;5019144;28;20223;-47
2022/02/09 12:38:43;;;;;;;4.30;3.90;;;;;;;7.99;100.00;98105.50;4988246;28;20755;-52
2022/02/09 12:41:14;;;;;;;4.23;3.67;;;;;;;8.24;100.00;98103.19;5030543;28;20255;-51
2022/02/09 12:43:52;;;;;;;3.90;3.60;;;;;;;8.35;100.00;98107.44;4998848;28;21341;-51
2022/02/09 12:46:21;;;;;;;4.70;4.40;;;;;;;8.24;100.00;98103.19;5011898;28;20207;-48
2022/02/09 12:48:50;;;;;;;3.60;3.17;;;;;;;8.19;100.00;98097.53;5035594;28;20203;-49
2022/02/09 12:51:27;;;;;;;3.77;3.47;;;;;;;8.50;100.00;98094.59;5018256;28;20741;-47
2022/02/09 12:54:00;;;;;;;3.70;3.50;;;;;;;8.48;100.00;98089.44;4992386;28;20219;-49
2022/02/09 12:56:30;;;;;;;3.57;3.37;;;;;;;8.57;100.00;98089.56;5026597;28;20437;-46
2022/02/09 12:59:02;;;;;;;3.53;3.23;;;;;;;8.56;100.00;98087.88;4995928;28;20218;-49
2022/02/09 13:01:42;;;;;;;3.67;3.37;;;;;;;9.18;100.00;98081.88;5008571;28;20262;-48
2022/02/09 13:04:10;;;;;;;3.70;3.50;;;;;;;8.82;100.00;98080.91;5035270;28;20211;-47
2022/02/09 13:06:44;;;;;;;4.10;3.73;;;;;;;8.66;100.00;98073.66;5015287;28;20774;-47
2022/02/09 13:09:17;;;;;;;4.37;4.03;;;;;;;8.85;100.00;98078.94;4995972;28;20241;-50
2022/02/09 13:11:45;;;;;;;3.63;3.43;;;;;;;8.68;100.00;98071.69;5028523;28;20251;-51
2022/02/09 13:14:27;;;;;;;3.63;3.40;;;;;;;8.92;100.00;98066.78;5030345;28;20199;-48
2022/02/09 13:17:10;;;;;;;3.50;3.20;;;;;;;9.68;100.00;98062.69;5013037;28;20222;-49
2022/02/09 13:23:34;;;;;;;3.57;3.27;;;;;;;13.78;94.79;98054.31;5020257;28;21758;-48
2022/02/09 13:52:27;;;;;;;4.20;3.13;;;;;;;11.73;100.00;98027.88;4927955;28;20832;-48
2022/02/09 14:12:04;;;;;;;3.50;2.70;;;;;;;9.80;100.00;98012.97;4845217;28;20441;-53
2022/02/09 14:53:40;;;;;;;5.73;3.43;;;;;;;9.07;100.00;98001.78;4902267;29;20215;-51
2022/02/09 14:56:16;;;;;;;3.10;2.90;;;;;;;9.09;100.00;97993.72;4908664;28;20210;-49
2022/02/09 14:58:47;;;;;;;3.73;3.43;;;;;;;8.94;100.00;97998.72;4877757;28;20934;-51
2022/02/09 15:01:19;;;;;;;5.97;3.37;;;;;;;8.90;100.00;97995.59;4927591;28;20239;-53
2022/02/09 15:04:08;;;;;;;3.20;2.97;;;;;;;8.97;100.00;97987.84;4926822;28;20221;-50
2022/02/09 15:09:16;;;;;;;3.50;3.10;;;;;;;8.74;100.00;97990.16;4943301;28;20215;-51
2022/02/09 15:12:01;;;;;;;3.63;3.07;;;;;;;8.98;100.00;97987.72;4942735;28;20443;-51
2022/02/09 15:14:35;;;;;;;4.30;3.53;;;;;;;9.06;100.00;97978.16;4981101;28;20606;-50
2022/02/09 15:20:09;;;;;;;4.10;3.80;;;;;;;9.82;100.00;97971.31;4962442;28;20201;-51
2022/02/09 15:22:35;;;;;;;3.57;3.27;;;;;;;10.07;100.00;97958.16;4968468;28;20319;-52
2022/02/09 15:25:11;;;;;;;3.30;3.10;;;;;;;9.91;100.00;97958.94;4989481;28;20208;-50
2022/02/09 15:27:40;;;;;;;4.20;3.23;;;;;;;9.40;100.00;97958.88;4954848;28;20231;-50
2022/02/09 15:30:08;;;;;;;5.27;3.63;;;;;;;9.02;100.00;97950.41;4988656;28;20215;-49
2022/02/09 15:32:40;;;;;;;5.43;3.97;;;;;;;8.55;100.00;97957.66;4989084;28;20242;-53
2022/02/09 15:35:14;;;;;;;4.30;4.00;;;;;;;8.20;100.00;97949.53;4980445;28;20216;-47
2022/02/09 15:37:48;;;;;;;3.73;3.43;;;;;;;7.92;100.00;97954.84;4985318;28;21016;-54
2022/02/09 15:40:30;;;;;;;4.73;4.33;;;;;;;7.70;100.00;97950.78;5009136;28;20348;-52
2022/02/09 15:43:13;;;;;;;4.60;4.23;;;;;;;7.43;100.00;97952.47;4914860;28;20237;-53
2022/02/09 15:56:58;;;;;;;4.97;4.47;;;;;;;6.73;100.00;97953.59;4956789;28;20244;-49
2022/02/09 16:11:00;;;;;;;5.20;4.80;;;;;;;5.98;100.00;97953.25;4907384;28;20214;-50
2022/02/09 16:22:06;;;;;;;4.20;3.90;;;;;;;5.60;100.00;97958.28;4783645;29;21097;-53
2022/02/09 16:25:05;;;;;;;3.90;3.60;;;;;;;5.59;100.00;97948.75;4834873;29;20266;-51
2022/02/09 16:33:17;;;;;;;4.10;3.80;;;;;;;5.69;100.00;97952.22;4803409;29;20427;-56
2022/02/09 16:39:01;;;;;;;4.13;3.83;;;;;;;5.44;100.00;97949.09;4807218;29;20214;-54
2022/02/09 16:44:24;;;;;;;5.50;4.10;;;;;;;5.17;100.00;97947.03;4880449;29;20318;-52
2022/02/09 16:46:55;;;;;;;4.30;3.90;;;;;;;5.12;100.00;97946.59;4846984;29;21023;-52
2022/02/09 16:49:33;;;;;;;4.60;4.20;;;;;;;4.95;100.00;97955.91;4886172;29;20223;-48
2022/02/09 16:52:06;;;;;;;5.13;4.67;;;;;;;4.90;100.00;97958.91;4862838;29;20287;-52
2022/02/09 16:54:44;;;;;;;4.87;4.47;;;;;;;4.77;100.00;97948.63;4961837;28;20428;-51
2022/02/09 17:11:12;;;;;;;7.03;6.47;;;;;;;4.16;100.00;97952.69;4968300;28;20211;-53
2022/02/09 17:19:46;;;;;;;8.27;7.20;;;;;;;3.84;100.00;97949.09;4881144;29;20209;-51
2022/02/09 17:22:16;;;;;;;10.90;6.70;;;;;;;3.94;100.00;97948.34;4867896;29;20284;-50
2022/02/09 17:24:44;;;;;;;7.83;7.03;;;;;;;3.82;100.00;97947.53;4865802;29;20671;-50
2022/02/09 17:27:17;;;;;;;7.57;6.87;;;;;;;3.87;100.00;97950.63;4882790;29;20436;-52
2022/02/09 17:30:04;;;;;;;7.10;6.47;;;;;;;3.75;100.00;97945.41;4885001;29;20261;-51
2022/02/09 17:32:45;;;;;;;10.13;6.80;;;;;;;3.79;100.00;97937.31;4859957;29;20244;-51
2022/02/09 17:35:19;;;;;;;18.73;14.63;;;;;;;3.80;100.00;97946.84;4870595;29;20453;-48
2022/02/09 17:38:15;;;;;;;11.20;10.10;;;;;;;3.75;100.00;97947.19;4874336;29;20593;-52
2022/02/09 17:57:23;;;;;;;8.77;6.70;;;;;;;3.50;100.00;97938.66;4960167;28;20213;-50
2022/02/09 18:00:08;;;;;;;7.40;6.80;;;;;;;3.56;100.00;97942.56;4982349;28;20241;-52
2022/02/09 18:02:36;;;;;;;9.13;6.87;;;;;;;3.45;100.00;97941.63;4964560;28;20822;-49
2022/02/09 18:05:11;;;;;;;8.00;7.20;;;;;;;3.62;100.00;97942.09;4946231;28;20455;-50
2022/02/09 18:07:41;;;;;;;10.90;8.30;;;;;;;3.44;100.00;97939.97;4966814;28;20684;-52
2022/02/09 18:10:19;;;;;;;10.43;9.33;;;;;;;3.59;100.00;97944.94;4956567;28;20899;-51
2022/02/09 18:15:50;;;;;;;8.83;8.07;;;;;;;3.39;100.00;97936.88;4960992;28;20210;-53
2022/02/09 18:29:45;;;;;;;11.07;6.60;;;;;;;3.24;100.00;97925.00;4911781;28;20476;-50
2022/02/09 18:32:36;;;;;;;7.23;6.50;;;;;;;3.25;100.00;97924.84;4908360;28;20262;-54
2022/02/09 18:38:12;;;;;;;6.37;5.43;;;;;;;3.16;100.00;97929.00;4917474;28;20233;-48
2022/02/09 18:43:31;;;;;;;7.93;5.70;;;;;;;3.06;100.00;97924.63;4906383;28;20447;-51
2022/02/09 18:46:07;;;;;;;5.93;5.37;;;;;;;3.08;100.00;97926.16;4924454;28;20798;-55
2022/02/09 18:57:29;;;;;;;12.67;10.30;;;;;;;2.94;100.00;97921.97;4839356;29;20696;-49
2022/02/09 19:00:06;;;;;;;8.37;7.30;;;;;;;2.93;100.00;97919.50;4830770;29;20237;-52
2022/02/09 19:02:40;;;;;;;9.17;6.43;;;;;;;2.71;100.00;97913.25;4863709;29;20363;-52
2022/02/09 19:05:26;;;;;;;7.87;6.70;;;;;;;2.67;100.00;97909.22;4887698;29;20231;-52
2022/02/09 19:16:44;;;;;;;7.87;6.77;;;;;;;2.58;100.00;97921.19;4867490;29;20211;-51
2022/02/09 19:30:37;;;;;;;8.87;7.97;;;;;;;2.27;100.00;97900.78;4903915;28;20894;-54
2022/02/09 19:47:25;;;;;;;8.90;8.10;;;;;;;1.97;100.00;97912.53;4912804;28;20741;-51
2022/02/09 19:52:51;;;;;;;9.87;8.93;;;;;;;1.93;100.00;97903.25;4893188;28;20235;-51
2022/02/09 19:55:33;;;;;;;10.70;9.50;;;;;;;1.88;100.00;97905.38;4910645;28;20211;-50
2022/02/09 19:58:02;;;;;;;10.37;9.37;;;;;;;1.64;100.00;97908.78;4937536;28;20526;-51
2022/02/09 20:00:35;;;;;;;11.70;9.90;;;;;;;1.72;100.00;97909.09;4913054;28;20423;-50
2022/02/09 20:03:06;;;;;;;12.70;11.50;;;;;;;1.56;100.00;97898.91;4928222;28;20286;-48
2022/02/09 20:05:36;;;;;;;11.33;10.30;;;;;;;1.61;100.00;97903.78;4914399;28;20383;-50
2022/02/09 20:08:06;;;;;;;10.60;9.57;;;;;;;1.69;100.00;97905.88;4933696;28;20208;-53
2022/02/09 20:10:34;;;;;;;10.70;9.47;;;;;;;1.57;100.00;97902.34;4957745;28;20209;-49
2022/02/09 20:13:02;;;;;;;11.00;10.00;;;;;;;1.45;100.00;97901.44;4988112;28;20225;-47
2022/02/09 20:15:30;;;;;;;11.10;9.97;;;;;;;1.40;100.00;97898.31;4961170;28;20332;-48
2022/02/09 20:17:58;;;;;;;10.40;9.40;;;;;;;1.36;100.00;97907.31;4986514;28;20229;-47
2022/02/09 20:20:29;;;;;;;10.67;9.77;;;;;;;1.39;100.00;97901.88;4976749;28;20688;-52
2022/02/09 20:22:59;;;;;;;10.00;8.80;;;;;;;1.44;100.00;97899.75;4985111;28;20229;-51
2022/02/09 20:25:28;;;;;;;11.67;10.57;;;;;;;1.25;100.00;97906.28;4942979;28;20370;-53
2022/02/09 20:27:57;;;;;;;11.40;10.30;;;;;;;1.13;100.00;97894.06;4984052;28;20202;-48
2022/02/09 20:30:32;;;;;;;10.87;9.87;;;;;;;1.05;100.00;97894.63;4987517;28;20305;-54
2022/02/09 20:33:04;;;;;;;10.53;9.50;;;;;;;0.96;100.00;97901.31;4969913;28;20255;-47
2022/02/09 20:35:32;;;;;;;11.73;10.63;;;;;;;0.97;100.00;97899.56;4983098;28;20202;-48
2022/02/09 20:38:01;;;;;;;12.43;10.53;;;;;;;0.89;100.00;97899.22;4974511;28;20213;-52
2022/02/09 20:40:37;;;;;;;12.10;10.90;;;;;;;0.78;100.00;97900.81;4941859;28;20305;-50
2022/02/09 20:43:07;;;;;;;11.30;10.30;;;;;;;0.71;100.00;97902.16;4986691;28;20223;-50
2022/02/09 20:45:38;;;;;;;13.57;10.97;;;;;;;0.67;100.00;97900.69;4982939;28;21260;-50
2022/02/09 20:48:08;;;;;;;11.80;10.60;;;;;;;0.71;100.00;97902.16;4970043;28;20704;-48
2022/02/09 20:50:37;;;;;;;11.33;10.23;;;;;;;0.55;100.00;97902.34;4986397;28;20572;-52
2022/02/09 20:53:06;;;;;;;11.67;10.53;;;;;;;0.50;100.00;97894.00;4971620;28;20967;-50
2022/02/09 20:55:34;;;;;;;11.50;10.57;;;;;;;0.55;100.00;97892.75;4955369;28;22997;-50